sensor_id;sensor_type;location;lat;lon;timestamp;temperature;humidity
39347;DHT22;26262;49.836;6.632;2023-08-06T00:01:38;13.60;99.90
39347;DHT22;26262;49.836;6.632;2023-08-06T00:04:03;13.60;99.90
39347;DHT22;26262;49.836;6.632;2023-08-06T00:06:29;13.50;99.90
39347;DHT22;26262;49.836;6.632;2023-08-06T00:08:54;13.50;99.90
39347;DHT22;26262;49.836;6.632;2023-08-06T00:11:20;13.40;99.90
39347;DHT22;26262;49.836;6.632;2023-08-06T00:13:45;13.40;99.90
39347;DHT22;26262;49.836;6.632;2023-08-06T00:16:11;13.40;99.90
39347;DHT22;26262;49.836;6.632;2023-08-06T00:18:37;13.30;99.90
39347;DHT22;26262;49.836;6.632;2023-08-06T00:21:02;13.40;99.90
39347;DHT22;26262;49.836;6.632;2023-08-06T00:23:28;13.50;99.90
39347;DHT22;26262;49.836;6.632;2023-08-06T00:25:53;13.50;99.90
39347;DHT22;26262;49.836;6.632;2023-08-06T00:28:19;13.40;99.90
39347;DHT22;26262;49.836;6.632;2023-08-06T00:30:44;13.50;99.90
39347;DHT22;26262;49.836;6.632;2023-08-06T00:33:09;13.50;99.90
39347;DHT22;26262;49.836;6.632;2023-08-06T00:35:35;13.50;99.90
39347;DHT22;26262;49.836;6.632;2023-08-06T00:38:00;13.60;99.90
39347;DHT22;26262;49.836;6.632;2023-08-06T00:40:26;13.60;99.90
39347;DHT22;26262;49.836;6.632;2023-08-06T00:42:53;13.60;99.90
39347;DHT22;26262;49.836;6.632;2023-08-06T00:45:19;13.60;99.90
39347;DHT22;26262;49.836;6.632;2023-08-06T00:47:44;13.60;99.90
39347;DHT22;26262;49.836;6.632;2023-08-06T00:50:11;13.60;99.90
39347;DHT22;26262;49.836;6.632;2023-08-06T00:52:36;13.70;99.90
39347;DHT22;26262;49.836;6.632;2023-08-06T00:55:02;13.70;99.90
39347;DHT22;26262;49.836;6.632;2023-08-06T00:57:27;13.80;99.90
39347;DHT22;26262;49.836;6.632;2023-08-06T00:59:53;13.90;99.90
39347;DHT22;26262;49.836;6.632;2023-08-06T01:02:18;13.90;99.90
39347;DHT22;26262;49.836;6.632;2023-08-06T01:04:44;13.90;99.90
39347;DHT22;26262;49.836;6.632;2023-08-06T01:17:21;13.70;99.90
39347;DHT22;26262;49.836;6.632;2023-08-06T01:19:48;13.80;99.90
39347;DHT22;26262;49.836;6.632;2023-08-06T01:22:14;13.80;99.90
39347;DHT22;26262;49.836;6.632;2023-08-06T01:24:40;13.90;99.90
39347;DHT22;26262;49.836;6.632;2023-08-06T01:27:10;13.90;99.90
39347;DHT22;26262;49.836;6.632;2023-08-06T01:29:47;13.90;99.90
39347;DHT22;26262;49.836;6.632;2023-08-06T01:32:14;14.10;99.90
39347;DHT22;26262;49.836;6.632;2023-08-06T01:34:40;14.10;99.90
39347;DHT22;26262;49.836;6.632;2023-08-06T01:37:06;14.20;99.90
39347;DHT22;26262;49.836;6.632;2023-08-06T01:39:35;14.30;99.90
39347;DHT22;26262;49.836;6.632;2023-08-06T01:42:01;14.40;99.90
39347;DHT22;26262;49.836;6.632;2023-08-06T01:44:26;14.50;99.90
39347;DHT22;26262;49.836;6.632;2023-08-06T01:46:52;14.40;99.90
39347;DHT22;26262;49.836;6.632;2023-08-06T01:49:17;14.40;99.90
39347;DHT22;26262;49.836;6.632;2023-08-06T01:51:42;14.40;99.90
39347;DHT22;26262;49.836;6.632;2023-08-06T01:54:08;14.40;99.90
39347;DHT22;26262;49.836;6.632;2023-08-06T01:56:33;14.40;99.90
39347;DHT22;26262;49.836;6.632;2023-08-06T01:58:59;14.50;99.90
39347;DHT22;26262;49.836;6.632;2023-08-06T02:01:24;14.40;99.90
39347;DHT22;26262;49.836;6.632;2023-08-06T02:03:50;14.40;99.90
39347;DHT22;26262;49.836;6.632;2023-08-06T02:06:15;14.40;99.90
39347;DHT22;26262;49.836;6.632;2023-08-06T02:08:41;14.40;99.90
39347;DHT22;26262;49.836;6.632;2023-08-06T02:11:06;14.50;99.90
39347;DHT22;26262;49.836;6.632;2023-08-06T02:13:31;14.40;99.90
39347;DHT22;26262;49.836;6.632;2023-08-06T02:15:57;14.50;99.90
39347;DHT22;26262;49.836;6.632;2023-08-06T02:18:22;14.50;99.90
39347;DHT22;26262;49.836;6.632;2023-08-06T02:20:57;14.40;99.90
39347;DHT22;26262;49.836;6.632;2023-08-06T02:23:23;14.40;99.90
39347;DHT22;26262;49.836;6.632;2023-08-06T02:25:48;14.30;99.90
39347;DHT22;26262;49.836;6.632;2023-08-06T02:28:14;14.20;99.90
39347;DHT22;26262;49.836;6.632;2023-08-06T02:30:39;14.20;99.90
39347;DHT22;26262;49.836;6.632;2023-08-06T02:33:04;14.20;99.90
39347;DHT22;26262;49.836;6.632;2023-08-06T02:35:30;14.20;99.90
39347;DHT22;26262;49.836;6.632;2023-08-06T02:37:55;14.20;99.90
39347;DHT22;26262;49.836;6.632;2023-08-06T02:40:21;14.30;99.90
39347;DHT22;26262;49.836;6.632;2023-08-06T02:42:46;14.20;99.90
39347;DHT22;26262;49.836;6.632;2023-08-06T02:45:12;14.20;99.90
39347;DHT22;26262;49.836;6.632;2023-08-06T02:47:37;14.30;99.90
39347;DHT22;26262;49.836;6.632;2023-08-06T02:50:02;14.30;99.90
39347;DHT22;26262;49.836;6.632;2023-08-06T02:52:28;14.20;99.90
39347;DHT22;26262;49.836;6.632;2023-08-06T02:54:53;14.20;99.90
39347;DHT22;26262;49.836;6.632;2023-08-06T02:57:19;14.20;99.90
39347;DHT22;26262;49.836;6.632;2023-08-06T02:59:44;14.30;99.90
39347;DHT22;26262;49.836;6.632;2023-08-06T03:02:10;14.20;99.90
39347;DHT22;26262;49.836;6.632;2023-08-06T03:04:35;14.20;99.90
39347;DHT22;26262;49.836;6.632;2023-08-06T03:07:00;14.30;99.90
39347;DHT22;26262;49.836;6.632;2023-08-06T03:09:26;14.30;99.90
39347;DHT22;26262;49.836;6.632;2023-08-06T03:11:51;14.30;99.90
39347;DHT22;26262;49.836;6.632;2023-08-06T03:14:17;14.20;99.90
39347;DHT22;26262;49.836;6.632;2023-08-06T03:16:42;14.30;99.90
39347;DHT22;26262;49.836;6.632;2023-08-06T03:19:08;14.30;99.90
39347;DHT22;26262;49.836;6.632;2023-08-06T03:21:33;14.30;99.90
39347;DHT22;26262;49.836;6.632;2023-08-06T03:23:58;14.30;99.90
39347;DHT22;26262;49.836;6.632;2023-08-06T03:26:24;14.30;99.90
39347;DHT22;26262;49.836;6.632;2023-08-06T03:28:49;14.30;99.90
39347;DHT22;26262;49.836;6.632;2023-08-06T03:31:15;14.40;99.90
39347;DHT22;26262;49.836;6.632;2023-08-06T03:33:40;14.50;99.90
39347;DHT22;26262;49.836;6.632;2023-08-06T03:36:05;14.30;99.90
39347;DHT22;26262;49.836;6.632;2023-08-06T03:38:31;14.20;99.90
39347;DHT22;26262;49.836;6.632;2023-08-06T03:40:56;14.30;99.90
39347;DHT22;26262;49.836;6.632;2023-08-06T03:43:22;14.30;99.90
39347;DHT22;26262;49.836;6.632;2023-08-06T03:45:47;14.40;99.90
39347;DHT22;26262;49.836;6.632;2023-08-06T03:48:13;14.30;99.90
39347;DHT22;26262;49.836;6.632;2023-08-06T03:50:38;14.30;99.90
39347;DHT22;26262;49.836;6.632;2023-08-06T03:53:04;14.30;99.90
39347;DHT22;26262;49.836;6.632;2023-08-06T03:55:29;14.20;99.90
39347;DHT22;26262;49.836;6.632;2023-08-06T03:57:55;14.30;99.90
39347;DHT22;26262;49.836;6.632;2023-08-06T04:00:20;14.30;99.90
39347;DHT22;26262;49.836;6.632;2023-08-06T04:02:45;14.40;99.90
39347;DHT22;26262;49.836;6.632;2023-08-06T04:05:11;14.30;99.90
39347;DHT22;26262;49.836;6.632;2023-08-06T04:07:37;14.30;99.90
39347;DHT22;26262;49.836;6.632;2023-08-06T04:10:03;14.40;99.90
39347;DHT22;26262;49.836;6.632;2023-08-06T04:12:29;14.20;99.90
39347;DHT22;26262;49.836;6.632;2023-08-06T04:14:57;14.20;99.90
39347;DHT22;26262;49.836;6.632;2023-08-06T04:17:23;14.30;99.90
39347;DHT22;26262;49.836;6.632;2023-08-06T04:19:49;14.40;99.90
39347;DHT22;26262;49.836;6.632;2023-08-06T04:22:15;14.30;99.90
39347;DHT22;26262;49.836;6.632;2023-08-06T04:24:41;14.40;99.90
39347;DHT22;26262;49.836;6.632;2023-08-06T04:27:07;14.30;99.90
39347;DHT22;26262;49.836;6.632;2023-08-06T04:29:33;14.40;99.90
39347;DHT22;26262;49.836;6.632;2023-08-06T04:31:58;14.40;99.90
39347;DHT22;26262;49.836;6.632;2023-08-06T04:34:24;14.50;99.90
39347;DHT22;26262;49.836;6.632;2023-08-06T04:36:49;14.50;99.90
39347;DHT22;26262;49.836;6.632;2023-08-06T04:39:14;14.50;99.90
39347;DHT22;26262;49.836;6.632;2023-08-06T04:41:40;14.50;99.90
39347;DHT22;26262;49.836;6.632;2023-08-06T04:44:05;14.40;99.90
39347;DHT22;26262;49.836;6.632;2023-08-06T04:46:31;14.40;99.90
39347;DHT22;26262;49.836;6.632;2023-08-06T04:48:56;14.40;99.90
39347;DHT22;26262;49.836;6.632;2023-08-06T04:51:21;14.40;99.90
39347;DHT22;26262;49.836;6.632;2023-08-06T04:53:47;14.40;99.90
39347;DHT22;26262;49.836;6.632;2023-08-06T04:56:12;14.40;99.90
39347;DHT22;26262;49.836;6.632;2023-08-06T04:58:38;14.50;99.90
39347;DHT22;26262;49.836;6.632;2023-08-06T05:01:03;14.40;99.90
39347;DHT22;26262;49.836;6.632;2023-08-06T05:03:28;14.40;99.90
39347;DHT22;26262;49.836;6.632;2023-08-06T05:05:54;14.50;99.90
39347;DHT22;26262;49.836;6.632;2023-08-06T05:08:20;14.40;99.90
39347;DHT22;26262;49.836;6.632;2023-08-06T05:10:45;14.50;99.90
39347;DHT22;26262;49.836;6.632;2023-08-06T05:13:11;14.40;99.90
39347;DHT22;26262;49.836;6.632;2023-08-06T05:15:37;14.40;99.90
39347;DHT22;26262;49.836;6.632;2023-08-06T05:18:02;14.50;99.90
39347;DHT22;26262;49.836;6.632;2023-08-06T05:20:28;14.50;99.90
39347;DHT22;26262;49.836;6.632;2023-08-06T05:22:53;14.60;99.90
39347;DHT22;26262;49.836;6.632;2023-08-06T05:25:19;14.60;99.90
39347;DHT22;26262;49.836;6.632;2023-08-06T05:27:45;14.60;99.90
39347;DHT22;26262;49.836;6.632;2023-08-06T05:30:10;14.60;99.90
39347;DHT22;26262;49.836;6.632;2023-08-06T05:32:36;14.60;99.90
39347;DHT22;26262;49.836;6.632;2023-08-06T05:35:01;14.60;99.90
39347;DHT22;26262;49.836;6.632;2023-08-06T05:37:28;14.60;99.90
39347;DHT22;26262;49.836;6.632;2023-08-06T05:39:53;14.70;99.90
39347;DHT22;26262;49.836;6.632;2023-08-06T05:42:18;14.80;99.90
39347;DHT22;26262;49.836;6.632;2023-08-06T05:44:44;14.70;99.90
39347;DHT22;26262;49.836;6.632;2023-08-06T05:47:09;14.80;99.90
39347;DHT22;26262;49.836;6.632;2023-08-06T05:49:35;14.80;99.90
39347;DHT22;26262;49.836;6.632;2023-08-06T05:52:00;14.90;99.90
39347;DHT22;26262;49.836;6.632;2023-08-06T05:54:26;14.90;99.90
39347;DHT22;26262;49.836;6.632;2023-08-06T05:56:51;15.00;99.90
39347;DHT22;26262;49.836;6.632;2023-08-06T05:59:16;14.90;99.90
39347;DHT22;26262;49.836;6.632;2023-08-06T06:01:42;14.80;99.90
39347;DHT22;26262;49.836;6.632;2023-08-06T06:04:07;14.80;99.90
39347;DHT22;26262;49.836;6.632;2023-08-06T06:06:33;14.80;99.90
39347;DHT22;26262;49.836;6.632;2023-08-06T06:08:58;14.80;99.90
39347;DHT22;26262;49.836;6.632;2023-08-06T06:11:23;14.90;99.90
39347;DHT22;26262;49.836;6.632;2023-08-06T06:13:50;14.90;99.90
39347;DHT22;26262;49.836;6.632;2023-08-06T06:16:16;14.90;99.90
39347;DHT22;26262;49.836;6.632;2023-08-06T06:18:41;15.00;99.90
39347;DHT22;26262;49.836;6.632;2023-08-06T06:21:07;15.00;99.90
39347;DHT22;26262;49.836;6.632;2023-08-06T06:23:32;15.00;99.90
39347;DHT22;26262;49.836;6.632;2023-08-06T06:25:57;14.90;99.90
39347;DHT22;26262;49.836;6.632;2023-08-06T06:28:23;15.00;99.90
39347;DHT22;26262;49.836;6.632;2023-08-06T06:30:48;15.00;99.90
39347;DHT22;26262;49.836;6.632;2023-08-06T06:33:14;15.00;99.90
39347;DHT22;26262;49.836;6.632;2023-08-06T06:35:39;14.90;99.90
39347;DHT22;26262;49.836;6.632;2023-08-06T06:38:05;14.80;99.90
39347;DHT22;26262;49.836;6.632;2023-08-06T06:40:30;14.70;99.90
39347;DHT22;26262;49.836;6.632;2023-08-06T06:42:56;14.70;99.90
39347;DHT22;26262;49.836;6.632;2023-08-06T06:45:21;14.70;99.90
39347;DHT22;26262;49.836;6.632;2023-08-06T06:47:46;14.80;99.90
39347;DHT22;26262;49.836;6.632;2023-08-06T06:50:12;14.70;99.90
39347;DHT22;26262;49.836;6.632;2023-08-06T06:52:37;14.70;99.90
39347;DHT22;26262;49.836;6.632;2023-08-06T06:55:03;14.70;99.90
39347;DHT22;26262;49.836;6.632;2023-08-06T06:57:28;14.60;99.90
39347;DHT22;26262;49.836;6.632;2023-08-06T06:59:54;14.60;99.90
39347;DHT22;26262;49.836;6.632;2023-08-06T07:02:19;14.70;99.90
39347;DHT22;26262;49.836;6.632;2023-08-06T07:04:45;14.70;99.90
39347;DHT22;26262;49.836;6.632;2023-08-06T07:07:10;14.60;99.90
39347;DHT22;26262;49.836;6.632;2023-08-06T07:09:36;14.60;99.90
39347;DHT22;26262;49.836;6.632;2023-08-06T07:12:01;14.60;99.90
39347;DHT22;26262;49.836;6.632;2023-08-06T07:14:28;14.50;99.90
39347;DHT22;26262;49.836;6.632;2023-08-06T07:16:53;14.50;99.90
39347;DHT22;26262;49.836;6.632;2023-08-06T07:19:19;14.50;99.90
39347;DHT22;26262;49.836;6.632;2023-08-06T07:21:44;14.50;99.90
39347;DHT22;26262;49.836;6.632;2023-08-06T07:24:10;14.60;99.90
39347;DHT22;26262;49.836;6.632;2023-08-06T07:26:35;14.70;99.90
39347;DHT22;26262;49.836;6.632;2023-08-06T07:29:01;14.80;99.90
39347;DHT22;26262;49.836;6.632;2023-08-06T07:31:26;14.70;99.90
39347;DHT22;26262;49.836;6.632;2023-08-06T07:33:52;14.80;99.90
39347;DHT22;26262;49.836;6.632;2023-08-06T07:36:17;14.70;99.90
39347;DHT22;26262;49.836;6.632;2023-08-06T07:38:43;14.70;99.90
39347;DHT22;26262;49.836;6.632;2023-08-06T07:41:08;14.80;99.90
39347;DHT22;26262;49.836;6.632;2023-08-06T07:43:34;14.90;99.90
39347;DHT22;26262;49.836;6.632;2023-08-06T07:46:01;14.80;99.90
39347;DHT22;26262;49.836;6.632;2023-08-06T07:48:26;14.80;99.90
39347;DHT22;26262;49.836;6.632;2023-08-06T07:50:52;14.60;99.90
39347;DHT22;26262;49.836;6.632;2023-08-06T07:53:19;14.40;99.90
39347;DHT22;26262;49.836;6.632;2023-08-06T07:55:47;14.50;99.90
39347;DHT22;26262;49.836;6.632;2023-08-06T07:58:13;14.30;99.90
39347;DHT22;26262;49.836;6.632;2023-08-06T08:00:38;14.50;99.90
39347;DHT22;26262;49.836;6.632;2023-08-06T08:03:07;14.40;99.90
39347;DHT22;26262;49.836;6.632;2023-08-06T08:05:32;14.40;99.90
39347;DHT22;26262;49.836;6.632;2023-08-06T08:07:58;14.30;99.90
39347;DHT22;26262;49.836;6.632;2023-08-06T08:10:23;14.30;99.90
39347;DHT22;26262;49.836;6.632;2023-08-06T08:12:49;14.40;99.90
39347;DHT22;26262;49.836;6.632;2023-08-06T08:15:14;14.50;99.90
39347;DHT22;26262;49.836;6.632;2023-08-06T08:17:40;14.30;99.90
39347;DHT22;26262;49.836;6.632;2023-08-06T08:20:05;14.50;99.90
39347;DHT22;26262;49.836;6.632;2023-08-06T08:22:31;14.50;99.90
39347;DHT22;26262;49.836;6.632;2023-08-06T08:24:56;14.50;99.90
39347;DHT22;26262;49.836;6.632;2023-08-06T08:27:21;14.50;99.90
39347;DHT22;26262;49.836;6.632;2023-08-06T08:29:47;14.60;99.90
39347;DHT22;26262;49.836;6.632;2023-08-06T08:32:12;14.60;99.90
39347;DHT22;26262;49.836;6.632;2023-08-06T08:34:38;14.70;99.90
39347;DHT22;26262;49.836;6.632;2023-08-06T08:37:03;14.80;99.90
39347;DHT22;26262;49.836;6.632;2023-08-06T08:39:31;14.90;99.90
39347;DHT22;26262;49.836;6.632;2023-08-06T08:41:56;14.90;99.90
39347;DHT22;26262;49.836;6.632;2023-08-06T08:44:22;14.80;99.90
39347;DHT22;26262;49.836;6.632;2023-08-06T08:46:48;14.90;99.90
39347;DHT22;26262;49.836;6.632;2023-08-06T08:49:14;15.00;99.90
39347;DHT22;26262;49.836;6.632;2023-08-06T08:51:40;14.90;99.90
39347;DHT22;26262;49.836;6.632;2023-08-06T08:54:06;14.80;99.90
39347;DHT22;26262;49.836;6.632;2023-08-06T08:56:33;14.90;99.90
39347;DHT22;26262;49.836;6.632;2023-08-06T08:58:58;15.00;99.90
39347;DHT22;26262;49.836;6.632;2023-08-06T09:01:24;15.00;99.90
39347;DHT22;26262;49.836;6.632;2023-08-06T09:03:50;14.90;99.90
39347;DHT22;26262;49.836;6.632;2023-08-06T09:06:17;14.80;99.90
39347;DHT22;26262;49.836;6.632;2023-08-06T09:08:43;14.70;99.90
39347;DHT22;26262;49.836;6.632;2023-08-06T09:11:12;14.70;99.90
39347;DHT22;26262;49.836;6.632;2023-08-06T09:13:38;14.60;99.90
39347;DHT22;26262;49.836;6.632;2023-08-06T09:16:04;14.70;99.90
39347;DHT22;26262;49.836;6.632;2023-08-06T09:18:30;14.80;99.90
39347;DHT22;26262;49.836;6.632;2023-08-06T09:20:56;14.80;99.90
39347;DHT22;26262;49.836;6.632;2023-08-06T09:23:27;14.80;99.90
39347;DHT22;26262;49.836;6.632;2023-08-06T09:25:53;15.00;99.90
39347;DHT22;26262;49.836;6.632;2023-08-06T09:28:18;15.10;99.90
39347;DHT22;26262;49.836;6.632;2023-08-06T09:30:44;15.30;99.90
39347;DHT22;26262;49.836;6.632;2023-08-06T09:33:14;15.40;99.90
39347;DHT22;26262;49.836;6.632;2023-08-06T09:35:42;15.60;99.90
39347;DHT22;26262;49.836;6.632;2023-08-06T09:38:08;15.70;99.90
39347;DHT22;26262;49.836;6.632;2023-08-06T09:40:35;15.80;99.90
39347;DHT22;26262;49.836;6.632;2023-08-06T09:43:01;15.90;99.90
39347;DHT22;26262;49.836;6.632;2023-08-06T09:45:30;16.10;99.90
39347;DHT22;26262;49.836;6.632;2023-08-06T09:47:57;16.40;99.90
39347;DHT22;26262;49.836;6.632;2023-08-06T09:50:23;16.40;99.90
39347;DHT22;26262;49.836;6.632;2023-08-06T09:52:50;16.50;99.90
39347;DHT22;26262;49.836;6.632;2023-08-06T09:55:17;16.70;99.90
39347;DHT22;26262;49.836;6.632;2023-08-06T09:57:43;16.70;99.90
39347;DHT22;26262;49.836;6.632;2023-08-06T10:00:08;16.70;99.90
39347;DHT22;26262;49.836;6.632;2023-08-06T10:02:35;16.80;99.90
39347;DHT22;26262;49.836;6.632;2023-08-06T10:05:01;16.80;99.90
39347;DHT22;26262;49.836;6.632;2023-08-06T10:07:26;16.80;99.90
39347;DHT22;26262;49.836;6.632;2023-08-06T10:09:52;16.80;99.90
39347;DHT22;26262;49.836;6.632;2023-08-06T10:12:18;16.80;99.90
39347;DHT22;26262;49.836;6.632;2023-08-06T10:14:45;16.90;99.90
39347;DHT22;26262;49.836;6.632;2023-08-06T10:17:10;16.90;99.90
39347;DHT22;26262;49.836;6.632;2023-08-06T10:19:36;16.90;99.90
39347;DHT22;26262;49.836;6.632;2023-08-06T10:22:12;16.60;99.90
39347;DHT22;26262;49.836;6.632;2023-08-06T10:24:51;16.70;99.90
39347;DHT22;26262;49.836;6.632;2023-08-06T10:27:19;16.50;99.90
39347;DHT22;26262;49.836;6.632;2023-08-06T10:29:45;16.30;99.90
39347;DHT22;26262;49.836;6.632;2023-08-06T10:32:10;16.20;99.90
39347;DHT22;26262;49.836;6.632;2023-08-06T10:34:54;16.20;99.90
39347;DHT22;26262;49.836;6.632;2023-08-06T10:37:23;16.10;99.90
39347;DHT22;26262;49.836;6.632;2023-08-06T10:39:49;16.20;99.90
39347;DHT22;26262;49.836;6.632;2023-08-06T10:42:19;16.20;99.90
39347;DHT22;26262;49.836;6.632;2023-08-06T10:47:29;16.20;99.90
39347;DHT22;26262;49.836;6.632;2023-08-06T10:49:55;15.90;99.90
39347;DHT22;26262;49.836;6.632;2023-08-06T10:52:20;16.10;99.90
39347;DHT22;26262;49.836;6.632;2023-08-06T10:54:46;16.10;99.90
39347;DHT22;26262;49.836;6.632;2023-08-06T10:57:12;16.10;99.90
39347;DHT22;26262;49.836;6.632;2023-08-06T10:59:37;16.10;99.90
39347;DHT22;26262;49.836;6.632;2023-08-06T11:02:03;16.00;99.90
39347;DHT22;26262;49.836;6.632;2023-08-06T11:04:30;15.90;99.90
39347;DHT22;26262;49.836;6.632;2023-08-06T11:06:56;16.00;99.90
39347;DHT22;26262;49.836;6.632;2023-08-06T11:09:21;16.00;99.90
39347;DHT22;26262;49.836;6.632;2023-08-06T11:11:46;16.00;99.90
39347;DHT22;26262;49.836;6.632;2023-08-06T11:14:15;16.20;99.90
39347;DHT22;26262;49.836;6.632;2023-08-06T11:16:40;16.40;99.90
39347;DHT22;26262;49.836;6.632;2023-08-06T11:19:07;16.60;99.90
39347;DHT22;26262;49.836;6.632;2023-08-06T11:21:32;16.60;99.90
39347;DHT22;26262;49.836;6.632;2023-08-06T11:23:58;16.60;99.90
39347;DHT22;26262;49.836;6.632;2023-08-06T11:26:24;16.80;99.90
39347;DHT22;26262;49.836;6.632;2023-08-06T11:28:49;16.80;99.90
39347;DHT22;26262;49.836;6.632;2023-08-06T11:31:21;16.90;99.90
39347;DHT22;26262;49.836;6.632;2023-08-06T11:33:49;16.80;99.90
39347;DHT22;26262;49.836;6.632;2023-08-06T11:36:14;16.90;99.90
39347;DHT22;26262;49.836;6.632;2023-08-06T11:38:40;17.00;99.90
39347;DHT22;26262;49.836;6.632;2023-08-06T11:41:06;17.10;99.90
39347;DHT22;26262;49.836;6.632;2023-08-06T11:43:32;17.30;99.90
39347;DHT22;26262;49.836;6.632;2023-08-06T11:45:58;17.50;99.90
39347;DHT22;26262;49.836;6.632;2023-08-06T11:48:25;17.50;99.90
39347;DHT22;26262;49.836;6.632;2023-08-06T11:50:53;17.50;99.90
39347;DHT22;26262;49.836;6.632;2023-08-06T11:53:19;17.50;99.90
39347;DHT22;26262;49.836;6.632;2023-08-06T11:55:44;17.40;99.90
39347;DHT22;26262;49.836;6.632;2023-08-06T11:58:10;17.40;99.90
39347;DHT22;26262;49.836;6.632;2023-08-06T12:00:39;17.50;99.90
39347;DHT22;26262;49.836;6.632;2023-08-06T12:03:05;17.60;99.90
39347;DHT22;26262;49.836;6.632;2023-08-06T12:05:31;17.70;99.90
39347;DHT22;26262;49.836;6.632;2023-08-06T12:07:58;17.60;99.90
39347;DHT22;26262;49.836;6.632;2023-08-06T12:10:25;17.90;99.90
39347;DHT22;26262;49.836;6.632;2023-08-06T12:12:51;18.00;99.90
39347;DHT22;26262;49.836;6.632;2023-08-06T12:15:16;18.00;99.90
39347;DHT22;26262;49.836;6.632;2023-08-06T12:17:42;18.10;99.90
39347;DHT22;26262;49.836;6.632;2023-08-06T12:20:07;18.20;99.90
39347;DHT22;26262;49.836;6.632;2023-08-06T12:22:33;18.20;99.90
39347;DHT22;26262;49.836;6.632;2023-08-06T12:25:07;18.30;99.90
39347;DHT22;26262;49.836;6.632;2023-08-06T12:27:33;18.30;99.90
39347;DHT22;26262;49.836;6.632;2023-08-06T12:29:59;18.00;99.90
39347;DHT22;26262;49.836;6.632;2023-08-06T12:32:24;17.80;99.90
39347;DHT22;26262;49.836;6.632;2023-08-06T12:34:50;18.00;99.90
39347;DHT22;26262;49.836;6.632;2023-08-06T12:37:15;18.10;99.90
39347;DHT22;26262;49.836;6.632;2023-08-06T12:39:40;18.20;99.90
39347;DHT22;26262;49.836;6.632;2023-08-06T12:42:06;18.30;99.90
39347;DHT22;26262;49.836;6.632;2023-08-06T12:44:31;18.40;99.90
39347;DHT22;26262;49.836;6.632;2023-08-06T12:46:57;18.40;99.90
39347;DHT22;26262;49.836;6.632;2023-08-06T12:49:22;18.40;99.90
39347;DHT22;26262;49.836;6.632;2023-08-06T12:51:48;18.40;99.90
39347;DHT22;26262;49.836;6.632;2023-08-06T12:54:14;18.10;99.90
39347;DHT22;26262;49.836;6.632;2023-08-06T12:56:39;18.00;99.90
39347;DHT22;26262;49.836;6.632;2023-08-06T12:59:05;17.80;99.90
39347;DHT22;26262;49.836;6.632;2023-08-06T13:01:30;17.20;99.90
39347;DHT22;26262;49.836;6.632;2023-08-06T13:03:57;17.30;99.90
39347;DHT22;26262;49.836;6.632;2023-08-06T13:06:23;17.30;99.90
39347;DHT22;26262;49.836;6.632;2023-08-06T13:08:48;17.50;99.90
39347;DHT22;26262;49.836;6.632;2023-08-06T13:11:14;17.30;99.90
39347;DHT22;26262;49.836;6.632;2023-08-06T13:13:39;17.50;99.90
39347;DHT22;26262;49.836;6.632;2023-08-06T13:16:05;17.30;99.90
39347;DHT22;26262;49.836;6.632;2023-08-06T13:18:31;17.10;99.90
39347;DHT22;26262;49.836;6.632;2023-08-06T13:20:57;17.20;99.90
39347;DHT22;26262;49.836;6.632;2023-08-06T13:23:22;17.30;99.90
39347;DHT22;26262;49.836;6.632;2023-08-06T13:25:47;17.40;99.90
39347;DHT22;26262;49.836;6.632;2023-08-06T13:28:13;16.90;99.90
39347;DHT22;26262;49.836;6.632;2023-08-06T13:30:41;16.80;99.90
39347;DHT22;26262;49.836;6.632;2023-08-06T13:33:07;16.80;99.90
39347;DHT22;26262;49.836;6.632;2023-08-06T13:35:33;17.00;99.90
39347;DHT22;26262;49.836;6.632;2023-08-06T13:37:59;16.60;99.90
39347;DHT22;26262;49.836;6.632;2023-08-06T13:40:24;16.70;99.90
39347;DHT22;26262;49.836;6.632;2023-08-06T13:42:50;16.80;99.90
39347;DHT22;26262;49.836;6.632;2023-08-06T13:45:15;16.80;99.90
39347;DHT22;26262;49.836;6.632;2023-08-06T13:47:41;16.70;99.90
39347;DHT22;26262;49.836;6.632;2023-08-06T13:50:06;16.20;99.90
39347;DHT22;26262;49.836;6.632;2023-08-06T13:52:31;16.20;99.90
39347;DHT22;26262;49.836;6.632;2023-08-06T13:54:57;16.10;99.90
39347;DHT22;26262;49.836;6.632;2023-08-06T13:57:22;16.20;99.90
39347;DHT22;26262;49.836;6.632;2023-08-06T13:59:48;16.10;99.90
39347;DHT22;26262;49.836;6.632;2023-08-06T14:02:13;16.20;99.90
39347;DHT22;26262;49.836;6.632;2023-08-06T14:04:39;16.30;99.90
39347;DHT22;26262;49.836;6.632;2023-08-06T14:07:05;16.70;99.90
39347;DHT22;26262;49.836;6.632;2023-08-06T14:09:30;17.10;99.90
39347;DHT22;26262;49.836;6.632;2023-08-06T14:11:56;17.30;99.90
39347;DHT22;26262;49.836;6.632;2023-08-06T14:14:21;17.40;99.90
39347;DHT22;26262;49.836;6.632;2023-08-06T14:16:52;17.40;99.90
39347;DHT22;26262;49.836;6.632;2023-08-06T14:19:18;17.30;99.90
39347;DHT22;26262;49.836;6.632;2023-08-06T14:21:43;17.10;99.90
39347;DHT22;26262;49.836;6.632;2023-08-06T14:24:09;16.70;99.90
39347;DHT22;26262;49.836;6.632;2023-08-06T14:26:34;16.80;99.90
39347;DHT22;26262;49.836;6.632;2023-08-06T14:29:00;16.90;99.90
39347;DHT22;26262;49.836;6.632;2023-08-06T14:31:25;17.20;99.90
39347;DHT22;26262;49.836;6.632;2023-08-06T14:33:51;17.10;99.90
39347;DHT22;26262;49.836;6.632;2023-08-06T14:36:16;17.10;99.90
39347;DHT22;26262;49.836;6.632;2023-08-06T14:38:42;17.20;99.90
39347;DHT22;26262;49.836;6.632;2023-08-06T14:41:07;17.20;99.90
39347;DHT22;26262;49.836;6.632;2023-08-06T14:43:33;16.90;99.90
39347;DHT22;26262;49.836;6.632;2023-08-06T14:45:58;16.80;99.90
39347;DHT22;26262;49.836;6.632;2023-08-06T14:48:23;16.70;99.90
39347;DHT22;26262;49.836;6.632;2023-08-06T14:50:49;16.80;99.90
39347;DHT22;26262;49.836;6.632;2023-08-06T14:53:15;16.50;99.90
39347;DHT22;26262;49.836;6.632;2023-08-06T14:55:40;16.30;99.90
39347;DHT22;26262;49.836;6.632;2023-08-06T14:58:07;16.40;99.90
39347;DHT22;26262;49.836;6.632;2023-08-06T15:00:32;16.50;99.90
39347;DHT22;26262;49.836;6.632;2023-08-06T15:02:57;16.00;99.90
39347;DHT22;26262;49.836;6.632;2023-08-06T15:05:24;15.80;99.90
39347;DHT22;26262;49.836;6.632;2023-08-06T15:07:49;15.90;99.90
39347;DHT22;26262;49.836;6.632;2023-08-06T15:10:15;16.10;99.90
39347;DHT22;26262;49.836;6.632;2023-08-06T15:12:40;16.10;99.90
39347;DHT22;26262;49.836;6.632;2023-08-06T15:15:06;15.90;99.90
39347;DHT22;26262;49.836;6.632;2023-08-06T15:17:32;16.00;99.90
39347;DHT22;26262;49.836;6.632;2023-08-06T15:19:57;16.00;99.90
39347;DHT22;26262;49.836;6.632;2023-08-06T15:22:24;16.10;99.90
39347;DHT22;26262;49.836;6.632;2023-08-06T15:24:49;16.00;99.90
39347;DHT22;26262;49.836;6.632;2023-08-06T15:27:14;16.10;99.90
39347;DHT22;26262;49.836;6.632;2023-08-06T15:29:40;16.00;99.90
39347;DHT22;26262;49.836;6.632;2023-08-06T15:32:07;16.00;99.90
39347;DHT22;26262;49.836;6.632;2023-08-06T15:34:32;16.00;99.90